sensor_id;sensor_type;location;lat;lon;timestamp;P1;durP1;ratioP1;P2;durP2;ratioP2
59147;SDS011;44930;52.878;6.168;2023-05-21T00:01:24;4.47;;;3.15;;
59147;SDS011;44930;52.878;6.168;2023-05-21T00:03:50;5.95;;;3.22;;
59147;SDS011;44930;52.878;6.168;2023-05-21T00:06:15;4.82;;;3.22;;
59147;SDS011;44930;52.878;6.168;2023-05-21T00:08:41;6.70;;;3.17;;
59147;SDS011;44930;52.878;6.168;2023-05-21T00:11:07;5.13;;;2.83;;
59147;SDS011;44930;52.878;6.168;2023-05-21T00:13:33;4.32;;;2.72;;
59147;SDS011;44930;52.878;6.168;2023-05-21T00:15:58;6.57;;;3.30;;
59147;SDS011;44930;52.878;6.168;2023-05-21T00:18:24;5.00;;;3.03;;
59147;SDS011;44930;52.878;6.168;2023-05-21T00:20:50;4.72;;;2.90;;
59147;SDS011;44930;52.878;6.168;2023-05-21T00:23:17;6.82;;;2.90;;
59147;SDS011;44930;52.878;6.168;2023-05-21T00:25:43;4.95;;;3.03;;
59147;SDS011;44930;52.878;6.168;2023-05-21T00:28:09;6.38;;;3.55;;
59147;SDS011;44930;52.878;6.168;2023-05-21T00:30:35;4.93;;;3.10;;
59147;SDS011;44930;52.878;6.168;2023-05-21T00:33:00;6.30;;;3.40;;
59147;SDS011;44930;52.878;6.168;2023-05-21T00:35:26;5.85;;;3.30;;
59147;SDS011;44930;52.878;6.168;2023-05-21T00:37:53;5.97;;;3.22;;
59147;SDS011;44930;52.878;6.168;2023-05-21T00:40:19;6.28;;;3.72;;
59147;SDS011;44930;52.878;6.168;2023-05-21T00:42:45;12.43;;;3.90;;
59147;SDS011;44930;52.878;6.168;2023-05-21T00:45:11;5.97;;;3.55;;
59147;SDS011;44930;52.878;6.168;2023-05-21T00:47:39;4.57;;;3.30;;
59147;SDS011;44930;52.878;6.168;2023-05-21T00:50:06;5.50;;;3.60;;
59147;SDS011;44930;52.878;6.168;2023-05-21T00:52:32;6.30;;;3.83;;
59147;SDS011;44930;52.878;6.168;2023-05-21T00:55:05;8.00;;;3.63;;
59147;SDS011;44930;52.878;6.168;2023-05-21T00:57:32;9.57;;;4.85;;
59147;SDS011;44930;52.878;6.168;2023-05-21T01:00:01;7.28;;;3.85;;
59147;SDS011;44930;52.878;6.168;2023-05-21T01:02:28;6.95;;;3.47;;
59147;SDS011;44930;52.878;6.168;2023-05-21T01:04:57;7.68;;;4.07;;
59147;SDS011;44930;52.878;6.168;2023-05-21T01:07:24;7.55;;;4.40;;
59147;SDS011;44930;52.878;6.168;2023-05-21T01:09:50;7.97;;;3.50;;
59147;SDS011;44930;52.878;6.168;2023-05-21T01:12:16;7.00;;;3.88;;
59147;SDS011;44930;52.878;6.168;2023-05-21T01:14:42;6.18;;;3.80;;
59147;SDS011;44930;52.878;6.168;2023-05-21T01:17:09;5.72;;;3.92;;
59147;SDS011;44930;52.878;6.168;2023-05-21T01:19:36;9.18;;;4.22;;
59147;SDS011;44930;52.878;6.168;2023-05-21T01:22:04;7.18;;;4.03;;
59147;SDS011;44930;52.878;6.168;2023-05-21T01:24:30;7.22;;;3.83;;
59147;SDS011;44930;52.878;6.168;2023-05-21T01:26:57;6.85;;;3.90;;
59147;SDS011;44930;52.878;6.168;2023-05-21T01:29:24;5.65;;;3.53;;
59147;SDS011;44930;52.878;6.168;2023-05-21T01:34:44;6.38;;;3.88;;
59147;SDS011;44930;52.878;6.168;2023-05-21T01:37:28;5.43;;;3.75;;
59147;SDS011;44930;52.878;6.168;2023-05-21T01:42:23;6.75;;;3.65;;
59147;SDS011;44930;52.878;6.168;2023-05-21T01:44:51;7.72;;;3.92;;
59147;SDS011;44930;52.878;6.168;2023-05-21T01:47:21;5.13;;;3.50;;
59147;SDS011;44930;52.878;6.168;2023-05-21T01:49:51;5.10;;;3.80;;
59147;SDS011;44930;52.878;6.168;2023-05-21T01:52:17;5.57;;;3.40;;
59147;SDS011;44930;52.878;6.168;2023-05-21T01:54:43;5.68;;;3.53;;
59147;SDS011;44930;52.878;6.168;2023-05-21T01:57:08;6.43;;;4.05;;
59147;SDS011;44930;52.878;6.168;2023-05-21T01:59:34;9.10;;;4.25;;
59147;SDS011;44930;52.878;6.168;2023-05-21T02:02:00;6.28;;;3.85;;
59147;SDS011;44930;52.878;6.168;2023-05-21T02:04:26;8.25;;;4.22;;
59147;SDS011;44930;52.878;6.168;2023-05-21T02:06:51;8.15;;;4.78;;
59147;SDS011;44930;52.878;6.168;2023-05-21T02:09:18;7.00;;;4.40;;
59147;SDS011;44930;52.878;6.168;2023-05-21T02:11:44;7.80;;;4.53;;
59147;SDS011;44930;52.878;6.168;2023-05-21T02:14:10;5.93;;;3.78;;
59147;SDS011;44930;52.878;6.168;2023-05-21T02:16:37;7.35;;;4.18;;
59147;SDS011;44930;52.878;6.168;2023-05-21T02:19:03;7.38;;;4.30;;
59147;SDS011;44930;52.878;6.168;2023-05-21T02:21:30;6.70;;;4.63;;
59147;SDS011;44930;52.878;6.168;2023-05-21T02:23:56;5.68;;;4.20;;
59147;SDS011;44930;52.878;6.168;2023-05-21T02:26:21;6.53;;;4.80;;
59147;SDS011;44930;52.878;6.168;2023-05-21T02:28:47;6.32;;;4.70;;
59147;SDS011;44930;52.878;6.168;2023-05-21T02:31:12;6.75;;;4.70;;
59147;SDS011;44930;52.878;6.168;2023-05-21T02:33:38;12.63;;;4.78;;
59147;SDS011;44930;52.878;6.168;2023-05-21T02:36:05;7.65;;;4.32;;
59147;SDS011;44930;52.878;6.168;2023-05-21T02:38:36;5.65;;;4.50;;
59147;SDS011;44930;52.878;6.168;2023-05-21T02:41:04;5.60;;;4.65;;
59147;SDS011;44930;52.878;6.168;2023-05-21T02:43:30;11.40;;;4.88;;
59147;SDS011;44930;52.878;6.168;2023-05-21T02:45:55;10.82;;;4.15;;
59147;SDS011;44930;52.878;6.168;2023-05-21T02:48:21;10.98;;;5.10;;
59147;SDS011;44930;52.878;6.168;2023-05-21T02:50:46;6.28;;;4.40;;
59147;SDS011;44930;52.878;6.168;2023-05-21T02:53:12;8.00;;;4.90;;
59147;SDS011;44930;52.878;6.168;2023-05-21T02:55:37;8.38;;;4.47;;
59147;SDS011;44930;52.878;6.168;2023-05-21T02:58:03;7.45;;;4.38;;
59147;SDS011;44930;52.878;6.168;2023-05-21T03:00:29;6.82;;;5.10;;
59147;SDS011;44930;52.878;6.168;2023-05-21T03:02:54;9.15;;;4.78;;
59147;SDS011;44930;52.878;6.168;2023-05-21T03:05:20;7.55;;;5.20;;
59147;SDS011;44930;52.878;6.168;2023-05-21T03:07:46;8.25;;;4.32;;
59147;SDS011;44930;52.878;6.168;2023-05-21T03:10:11;6.47;;;5.28;;
59147;SDS011;44930;52.878;6.168;2023-05-21T03:12:37;15.18;;;7.45;;
59147;SDS011;44930;52.878;6.168;2023-05-21T03:15:03;7.80;;;5.18;;
59147;SDS011;44930;52.878;6.168;2023-05-21T03:17:29;7.32;;;5.55;;
59147;SDS011;44930;52.878;6.168;2023-05-21T03:19:55;11.45;;;5.70;;
59147;SDS011;44930;52.878;6.168;2023-05-21T03:22:20;9.73;;;5.30;;
59147;SDS011;44930;52.878;6.168;2023-05-21T03:24:46;10.65;;;5.60;;
59147;SDS011;44930;52.878;6.168;2023-05-21T03:27:12;7.18;;;5.28;;
59147;SDS011;44930;52.878;6.168;2023-05-21T03:29:38;9.65;;;5.03;;
59147;SDS011;44930;52.878;6.168;2023-05-21T03:32:04;7.80;;;5.22;;
59147;SDS011;44930;52.878;6.168;2023-05-21T03:34:30;8.55;;;5.18;;
59147;SDS011;44930;52.878;6.168;2023-05-21T03:36:58;9.88;;;5.93;;
59147;SDS011;44930;52.878;6.168;2023-05-21T03:39:24;7.55;;;5.50;;
59147;SDS011;44930;52.878;6.168;2023-05-21T03:41:49;7.97;;;5.65;;
59147;SDS011;44930;52.878;6.168;2023-05-21T03:44:15;7.35;;;5.15;;
59147;SDS011;44930;52.878;6.168;2023-05-21T03:46:41;10.80;;;5.40;;
59147;SDS011;44930;52.878;6.168;2023-05-21T03:49:06;9.43;;;6.25;;
59147;SDS011;44930;52.878;6.168;2023-05-21T03:51:32;9.10;;;6.00;;
59147;SDS011;44930;52.878;6.168;2023-05-21T03:53:58;8.25;;;5.38;;
59147;SDS011;44930;52.878;6.168;2023-05-21T03:56:23;9.48;;;5.25;;
59147;SDS011;44930;52.878;6.168;2023-05-21T03:58:49;11.20;;;5.75;;
59147;SDS011;44930;52.878;6.168;2023-05-21T04:01:15;8.15;;;5.82;;
59147;SDS011;44930;52.878;6.168;2023-05-21T04:03:41;13.75;;;5.65;;
59147;SDS011;44930;52.878;6.168;2023-05-21T04:06:07;10.90;;;6.20;;
59147;SDS011;44930;52.878;6.168;2023-05-21T04:08:34;9.77;;;5.47;;
59147;SDS011;44930;52.878;6.168;2023-05-21T04:11:00;10.25;;;5.95;;
59147;SDS011;44930;52.878;6.168;2023-05-21T04:13:26;10.85;;;6.00;;
59147;SDS011;44930;52.878;6.168;2023-05-21T04:15:52;13.07;;;5.97;;
59147;SDS011;44930;52.878;6.168;2023-05-21T04:18:18;12.30;;;6.18;;
59147;SDS011;44930;52.878;6.168;2023-05-21T04:20:44;11.13;;;6.22;;
59147;SDS011;44930;52.878;6.168;2023-05-21T04:23:10;9.07;;;5.10;;
59147;SDS011;44930;52.878;6.168;2023-05-21T04:25:35;12.50;;;6.32;;
59147;SDS011;44930;52.878;6.168;2023-05-21T04:28:02;12.32;;;6.65;;
59147;SDS011;44930;52.878;6.168;2023-05-21T04:30:28;6.45;;;5.57;;
59147;SDS011;44930;52.878;6.168;2023-05-21T04:32:54;9.57;;;6.25;;
59147;SDS011;44930;52.878;6.168;2023-05-21T04:35:19;8.70;;;5.72;;
59147;SDS011;44930;52.878;6.168;2023-05-21T04:37:45;11.80;;;6.47;;
59147;SDS011;44930;52.878;6.168;2023-05-21T04:40:11;7.80;;;5.97;;
59147;SDS011;44930;52.878;6.168;2023-05-21T04:42:42;10.88;;;6.22;;
59147;SDS011;44930;52.878;6.168;2023-05-21T04:45:10;8.65;;;6.18;;
59147;SDS011;44930;52.878;6.168;2023-05-21T04:47:36;11.63;;;6.10;;
59147;SDS011;44930;52.878;6.168;2023-05-21T04:50:02;10.27;;;6.63;;
59147;SDS011;44930;52.878;6.168;2023-05-21T04:52:28;10.57;;;5.95;;
59147;SDS011;44930;52.878;6.168;2023-05-21T04:54:54;8.73;;;6.65;;
59147;SDS011;44930;52.878;6.168;2023-05-21T04:57:21;9.93;;;6.22;;
59147;SDS011;44930;52.878;6.168;2023-05-21T04:59:48;10.85;;;6.30;;
59147;SDS011;44930;52.878;6.168;2023-05-21T05:02:14;9.35;;;6.55;;
59147;SDS011;44930;52.878;6.168;2023-05-21T05:04:39;8.13;;;6.18;;
59147;SDS011;44930;52.878;6.168;2023-05-21T05:07:05;10.27;;;6.95;;
59147;SDS011;44930;52.878;6.168;2023-05-21T05:09:31;10.55;;;6.38;;
59147;SDS011;44930;52.878;6.168;2023-05-21T05:11:56;9.90;;;6.13;;
59147;SDS011;44930;52.878;6.168;2023-05-21T05:14:22;9.80;;;6.20;;
59147;SDS011;44930;52.878;6.168;2023-05-21T05:16:48;9.82;;;6.05;;
59147;SDS011;44930;52.878;6.168;2023-05-21T05:19:13;10.25;;;6.05;;
59147;SDS011;44930;52.878;6.168;2023-05-21T05:21:39;9.38;;;6.30;;
59147;SDS011;44930;52.878;6.168;2023-05-21T05:24:04;9.95;;;6.25;;
59147;SDS011;44930;52.878;6.168;2023-05-21T05:26:30;11.50;;;6.63;;
59147;SDS011;44930;52.878;6.168;2023-05-21T05:28:56;10.10;;;6.20;;
59147;SDS011;44930;52.878;6.168;2023-05-21T05:31:21;11.20;;;6.35;;
59147;SDS011;44930;52.878;6.168;2023-05-21T05:33:47;9.45;;;6.28;;
59147;SDS011;44930;52.878;6.168;2023-05-21T05:36:12;18.80;;;7.20;;
59147;SDS011;44930;52.878;6.168;2023-05-21T05:38:38;9.95;;;6.63;;
59147;SDS011;44930;52.878;6.168;2023-05-21T05:41:04;10.20;;;5.97;;
59147;SDS011;44930;52.878;6.168;2023-05-21T05:43:29;13.77;;;6.50;;
59147;SDS011;44930;52.878;6.168;2023-05-21T05:45:55;11.00;;;6.38;;
59147;SDS011;44930;52.878;6.168;2023-05-21T05:48:20;9.75;;;6.15;;
59147;SDS011;44930;52.878;6.168;2023-05-21T05:50:46;11.02;;;6.95;;
59147;SDS011;44930;52.878;6.168;2023-05-21T05:53:12;12.35;;;7.20;;
59147;SDS011;44930;52.878;6.168;2023-05-21T05:55:38;11.07;;;6.57;;
59147;SDS011;44930;52.878;6.168;2023-05-21T05:58:04;11.25;;;6.55;;
59147;SDS011;44930;52.878;6.168;2023-05-21T06:00:30;10.63;;;6.60;;
59147;SDS011;44930;52.878;6.168;2023-05-21T06:02:56;13.65;;;7.10;;
59147;SDS011;44930;52.878;6.168;2023-05-21T06:05:21;12.27;;;5.95;;
59147;SDS011;44930;52.878;6.168;2023-05-21T06:07:47;10.77;;;5.75;;
59147;SDS011;44930;52.878;6.168;2023-05-21T06:10:13;9.73;;;6.75;;
59147;SDS011;44930;52.878;6.168;2023-05-21T06:12:38;10.02;;;6.68;;
59147;SDS011;44930;52.878;6.168;2023-05-21T06:15:04;8.43;;;5.28;;
59147;SDS011;44930;52.878;6.168;2023-05-21T06:17:30;12.15;;;6.57;;
59147;SDS011;44930;52.878;6.168;2023-05-21T06:19:56;10.40;;;5.80;;
59147;SDS011;44930;52.878;6.168;2023-05-21T06:22:21;8.85;;;5.40;;
59147;SDS011;44930;52.878;6.168;2023-05-21T06:24:47;10.35;;;5.57;;
59147;SDS011;44930;52.878;6.168;2023-05-21T06:27:12;8.82;;;6.00;;
59147;SDS011;44930;52.878;6.168;2023-05-21T06:29:38;10.05;;;5.93;;
59147;SDS011;44930;52.878;6.168;2023-05-21T06:32:05;9.10;;;5.93;;
59147;SDS011;44930;52.878;6.168;2023-05-21T06:34:31;8.52;;;5.50;;
59147;SDS011;44930;52.878;6.168;2023-05-21T06:36:57;9.32;;;6.15;;
59147;SDS011;44930;52.878;6.168;2023-05-21T06:39:22;11.40;;;5.25;;
59147;SDS011;44930;52.878;6.168;2023-05-21T06:41:48;13.38;;;6.72;;
59147;SDS011;44930;52.878;6.168;2023-05-21T06:44:14;8.73;;;5.80;;
59147;SDS011;44930;52.878;6.168;2023-05-21T06:46:40;9.98;;;5.60;;
59147;SDS011;44930;52.878;6.168;2023-05-21T06:49:06;8.57;;;5.10;;
59147;SDS011;44930;52.878;6.168;2023-05-21T06:51:32;7.70;;;5.18;;
59147;SDS011;44930;52.878;6.168;2023-05-21T06:53:57;9.25;;;5.82;;
59147;SDS011;44930;52.878;6.168;2023-05-21T06:56:23;11.18;;;5.93;;
59147;SDS011;44930;52.878;6.168;2023-05-21T06:58:49;9.30;;;5.18;;
59147;SDS011;44930;52.878;6.168;2023-05-21T07:01:14;8.10;;;5.63;;
59147;SDS011;44930;52.878;6.168;2023-05-21T07:03:40;10.05;;;5.43;;
59147;SDS011;44930;52.878;6.168;2023-05-21T07:06:06;10.95;;;5.35;;
59147;SDS011;44930;52.878;6.168;2023-05-21T07:08:31;10.82;;;5.80;;
59147;SDS011;44930;52.878;6.168;2023-05-21T07:10:57;9.90;;;5.45;;
59147;SDS011;44930;52.878;6.168;2023-05-21T07:13:22;8.70;;;5.40;;
59147;SDS011;44930;52.878;6.168;2023-05-21T07:15:48;11.82;;;5.95;;
59147;SDS011;44930;52.878;6.168;2023-05-21T07:18:14;10.02;;;5.38;;
59147;SDS011;44930;52.878;6.168;2023-05-21T07:20:40;7.75;;;5.18;;
59147;SDS011;44930;52.878;6.168;2023-05-21T07:23:06;7.72;;;5.20;;
59147;SDS011;44930;52.878;6.168;2023-05-21T07:25:31;10.73;;;5.40;;
59147;SDS011;44930;52.878;6.168;2023-05-21T07:27:57;10.52;;;5.28;;
59147;SDS011;44930;52.878;6.168;2023-05-21T07:30:22;9.90;;;5.60;;
59147;SDS011;44930;52.878;6.168;2023-05-21T07:32:48;9.98;;;5.80;;
59147;SDS011;44930;52.878;6.168;2023-05-21T07:35:13;7.30;;;4.97;;
59147;SDS011;44930;52.878;6.168;2023-05-21T07:37:39;9.35;;;5.65;;
59147;SDS011;44930;52.878;6.168;2023-05-21T07:40:05;8.65;;;4.68;;
59147;SDS011;44930;52.878;6.168;2023-05-21T07:42:31;9.32;;;5.45;;
59147;SDS011;44930;52.878;6.168;2023-05-21T07:44:57;8.82;;;5.20;;
59147;SDS011;44930;52.878;6.168;2023-05-21T07:47:23;12.25;;;5.45;;
59147;SDS011;44930;52.878;6.168;2023-05-21T07:49:48;8.35;;;5.15;;
59147;SDS011;44930;52.878;6.168;2023-05-21T07:52:14;9.45;;;5.53;;
59147;SDS011;44930;52.878;6.168;2023-05-21T07:54:40;9.65;;;5.30;;
59147;SDS011;44930;52.878;6.168;2023-05-21T07:57:05;8.52;;;5.40;;
59147;SDS011;44930;52.878;6.168;2023-05-21T07:59:31;6.35;;;4.85;;
59147;SDS011;44930;52.878;6.168;2023-05-21T08:01:57;11.13;;;6.05;;
59147;SDS011;44930;52.878;6.168;2023-05-21T08:04:23;10.63;;;5.53;;
59147;SDS011;44930;52.878;6.168;2023-05-21T08:06:49;9.68;;;5.65;;
59147;SDS011;44930;52.878;6.168;2023-05-21T08:09:14;9.77;;;5.20;;
59147;SDS011;44930;52.878;6.168;2023-05-21T08:11:40;8.82;;;5.25;;
59147;SDS011;44930;52.878;6.168;2023-05-21T08:14:06;9.27;;;5.05;;
59147;SDS011;44930;52.878;6.168;2023-05-21T08:16:31;12.95;;;6.60;;
59147;SDS011;44930;52.878;6.168;2023-05-21T08:18:57;9.15;;;5.35;;
59147;SDS011;44930;52.878;6.168;2023-05-21T08:21:22;7.47;;;5.57;;
59147;SDS011;44930;52.878;6.168;2023-05-21T08:23:48;9.68;;;5.63;;
59147;SDS011;44930;52.878;6.168;2023-05-21T08:26:16;7.93;;;6.00;;
59147;SDS011;44930;52.878;6.168;2023-05-21T08:28:41;7.07;;;5.22;;
59147;SDS011;44930;52.878;6.168;2023-05-21T08:31:08;8.52;;;4.90;;
59147;SDS011;44930;52.878;6.168;2023-05-21T08:33:34;7.78;;;5.18;;
59147;SDS011;44930;52.878;6.168;2023-05-21T08:36:04;8.40;;;5.80;;
59147;SDS011;44930;52.878;6.168;2023-05-21T08:38:30;8.80;;;6.07;;
59147;SDS011;44930;52.878;6.168;2023-05-21T08:40:56;9.15;;;5.95;;
59147;SDS011;44930;52.878;6.168;2023-05-21T08:43:23;7.78;;;5.63;;
59147;SDS011;44930;52.878;6.168;2023-05-21T08:45:52;9.05;;;6.05;;
59147;SDS011;44930;52.878;6.168;2023-05-21T08:48:19;9.25;;;6.43;;
59147;SDS011;44930;52.878;6.168;2023-05-21T08:50:47;14.18;;;6.28;;
59147;SDS011;44930;52.878;6.168;2023-05-21T08:53:17;9.55;;;6.55;;
59147;SDS011;44930;52.878;6.168;2023-05-21T08:55:42;14.98;;;6.65;;
59147;SDS011;44930;52.878;6.168;2023-05-21T08:58:08;8.70;;;6.72;;
59147;SDS011;44930;52.878;6.168;2023-05-21T09:00:34;10.70;;;7.30;;
59147;SDS011;44930;52.878;6.168;2023-05-21T09:03:01;10.63;;;5.95;;
59147;SDS011;44930;52.878;6.168;2023-05-21T09:05:31;10.80;;;7.28;;
59147;SDS011;44930;52.878;6.168;2023-05-21T09:08:00;12.38;;;6.68;;
59147;SDS011;44930;52.878;6.168;2023-05-21T09:10:35;10.70;;;6.43;;
59147;SDS011;44930;52.878;6.168;2023-05-21T09:13:03;8.18;;;6.47;;
59147;SDS011;44930;52.878;6.168;2023-05-21T09:15:29;12.80;;;7.07;;
59147;SDS011;44930;52.878;6.168;2023-05-21T09:17:55;10.13;;;6.30;;
59147;SDS011;44930;52.878;6.168;2023-05-21T09:20:24;8.98;;;6.55;;
59147;SDS011;44930;52.878;6.168;2023-05-21T09:22:51;9.68;;;6.10;;
59147;SDS011;44930;52.878;6.168;2023-05-21T09:25:24;8.57;;;6.40;;
59147;SDS011;44930;52.878;6.168;2023-05-21T09:27:56;12.10;;;6.57;;
59147;SDS011;44930;52.878;6.168;2023-05-21T09:30:21;7.47;;;5.68;;
59147;SDS011;44930;52.878;6.168;2023-05-21T09:32:51;11.63;;;6.82;;
59147;SDS011;44930;52.878;6.168;2023-05-21T09:35:20;10.10;;;7.18;;
59147;SDS011;44930;52.878;6.168;2023-05-21T09:37:47;8.40;;;6.28;;
59147;SDS011;44930;52.878;6.168;2023-05-21T09:40:14;11.15;;;6.68;;
59147;SDS011;44930;52.878;6.168;2023-05-21T09:42:47;10.27;;;6.40;;
59147;SDS011;44930;52.878;6.168;2023-05-21T09:45:20;8.43;;;5.68;;
59147;SDS011;44930;52.878;6.168;2023-05-21T09:47:47;12.52;;;6.78;;
59147;SDS011;44930;52.878;6.168;2023-05-21T09:50:47;10.23;;;6.10;;
59147;SDS011;44930;52.878;6.168;2023-05-21T09:53:10;11.48;;;5.55;;
59147;SDS011;44930;52.878;6.168;2023-05-21T09:55:38;10.73;;;6.00;;
59147;SDS011;44930;52.878;6.168;2023-05-21T09:58:04;12.23;;;6.07;;
59147;SDS011;44930;52.878;6.168;2023-05-21T10:00:30;9.45;;;5.95;;
59147;SDS011;44930;52.878;6.168;2023-05-21T10:02:56;10.55;;;6.55;;
59147;SDS011;44930;52.878;6.168;2023-05-21T10:05:26;10.75;;;5.85;;
59147;SDS011;44930;52.878;6.168;2023-05-21T10:07:52;8.52;;;5.70;;
59147;SDS011;44930;52.878;6.168;2023-05-21T10:10:24;9.95;;;5.68;;
59147;SDS011;44930;52.878;6.168;2023-05-21T10:13:25;11.07;;;6.22;;
59147;SDS011;44930;52.878;6.168;2023-05-21T10:15:51;9.75;;;5.75;;
59147;SDS011;44930;52.878;6.168;2023-05-21T10:18:22;9.35;;;6.07;;
59147;SDS011;44930;52.878;6.168;2023-05-21T10:20:49;8.55;;;5.90;;
59147;SDS011;44930;52.878;6.168;2023-05-21T10:23:15;8.75;;;5.85;;
59147;SDS011;44930;52.878;6.168;2023-05-21T10:25:42;11.40;;;5.70;;
59147;SDS011;44930;52.878;6.168;2023-05-21T10:28:09;9.80;;;5.43;;
59147;SDS011;44930;52.878;6.168;2023-05-21T10:30:35;8.15;;;6.50;;
59147;SDS011;44930;52.878;6.168;2023-05-21T10:33:01;9.43;;;6.03;;
59147;SDS011;44930;52.878;6.168;2023-05-21T10:35:28;12.27;;;6.38;;
59147;SDS011;44930;52.878;6.168;2023-05-21T10:37:55;8.73;;;5.78;;
59147;SDS011;44930;52.878;6.168;2023-05-21T10:40:21;10.60;;;5.90;;
59147;SDS011;44930;52.878;6.168;2023-05-21T10:42:51;12.63;;;6.22;;
59147;SDS011;44930;52.878;6.168;2023-05-21T10:51:04;9.32;;;6.07;;
59147;SDS011;44930;52.878;6.168;2023-05-21T10:54:32;13.32;;;5.65;;
59147;SDS011;44930;52.878;6.168;2023-05-21T10:57:08;7.97;;;5.88;;
59147;SDS011;44930;52.878;6.168;2023-05-21T10:59:53;10.15;;;6.30;;
59147;SDS011;44930;52.878;6.168;2023-05-21T11:02:19;11.38;;;5.90;;
59147;SDS011;44930;52.878;6.168;2023-05-21T11:04:46;13.52;;;6.47;;
59147;SDS011;44930;52.878;6.168;2023-05-21T11:07:14;9.02;;;5.65;;
59147;SDS011;44930;52.878;6.168;2023-05-21T11:09:48;12.52;;;7.07;;
59147;SDS011;44930;52.878;6.168;2023-05-21T11:12:14;10.15;;;5.50;;
59147;SDS011;44930;52.878;6.168;2023-05-21T11:14:56;7.97;;;6.00;;
59147;SDS011;44930;52.878;6.168;2023-05-21T11:17:38;11.18;;;5.68;;
59147;SDS011;44930;52.878;6.168;2023-05-21T11:20:07;8.73;;;5.85;;
59147;SDS011;44930;52.878;6.168;2023-05-21T11:22:35;9.25;;;5.55;;
59147;SDS011;44930;52.878;6.168;2023-05-21T11:25:02;8.02;;;5.60;;
59147;SDS011;44930;52.878;6.168;2023-05-21T11:27:35;11.90;;;6.03;;
59147;SDS011;44930;52.878;6.168;2023-05-21T11:32:35;13.73;;;6.15;;
59147;SDS011;44930;52.878;6.168;2023-05-21T11:35:02;11.93;;;5.38;;
59147;SDS011;44930;52.878;6.168;2023-05-21T11:37:29;13.13;;;5.32;;
59147;SDS011;44930;52.878;6.168;2023-05-21T11:39:56;10.02;;;6.13;;
59147;SDS011;44930;52.878;6.168;2023-05-21T11:42:37;12.50;;;6.55;;
59147;SDS011;44930;52.878;6.168;2023-05-21T11:45:03;10.85;;;6.30;;
59147;SDS011;44930;52.878;6.168;2023-05-21T11:47:30;11.02;;;6.32;;
59147;SDS011;44930;52.878;6.168;2023-05-21T11:49:57;10.63;;;6.07;;
59147;SDS011;44930;52.878;6.168;2023-05-21T11:52:24;9.60;;;6.43;;
59147;SDS011;44930;52.878;6.168;2023-05-21T11:54:53;8.93;;;6.20;;
59147;SDS011;44930;52.878;6.168;2023-05-21T11:57:24;11.73;;;7.28;;
59147;SDS011;44930;52.878;6.168;2023-05-21T11:59:52;12.25;;;6.15;;
59147;SDS011;44930;52.878;6.168;2023-05-21T12:02:18;10.88;;;6.80;;
59147;SDS011;44930;52.878;6.168;2023-05-21T12:04:46;11.60;;;7.05;;
59147;SDS011;44930;52.878;6.168;2023-05-21T12:07:14;11.13;;;7.63;;
59147;SDS011;44930;52.878;6.168;2023-05-21T12:09:45;12.15;;;7.57;;
59147;SDS011;44930;52.878;6.168;2023-05-21T12:12:22;11.57;;;7.28;;
59147;SDS011;44930;52.878;6.168;2023-05-21T12:14:50;11.15;;;7.38;;
59147;SDS011;44930;52.878;6.168;2023-05-21T12:17:17;11.05;;;7.35;;
59147;SDS011;44930;52.878;6.168;2023-05-21T12:19:44;14.25;;;8.32;;
59147;SDS011;44930;52.878;6.168;2023-05-21T12:22:11;11.30;;;7.28;;
59147;SDS011;44930;52.878;6.168;2023-05-21T12:24:37;10.35;;;7.72;;
59147;SDS011;44930;52.878;6.168;2023-05-21T12:27:03;13.57;;;6.63;;
59147;SDS011;44930;52.878;6.168;2023-05-21T12:29:36;9.27;;;6.93;;
59147;SDS011;44930;52.878;6.168;2023-05-21T12:32:03;10.20;;;7.15;;
59147;SDS011;44930;52.878;6.168;2023-05-21T12:39:58;18.58;;;8.23;;
59147;SDS011;44930;52.878;6.168;2023-05-21T12:42:35;13.00;;;7.65;;
59147;SDS011;44930;52.878;6.168;2023-05-21T12:45:07;10.30;;;6.90;;
59147;SDS011;44930;52.878;6.168;2023-05-21T12:47:34;13.05;;;6.97;;
59147;SDS011;44930;52.878;6.168;2023-05-21T12:50:00;12.05;;;7.97;;
59147;SDS011;44930;52.878;6.168;2023-05-21T12:52:27;13.32;;;8.55;;
59147;SDS011;44930;52.878;6.168;2023-05-21T12:54:53;11.45;;;8.25;;
59147;SDS011;44930;52.878;6.168;2023-05-21T12:57:26;14.68;;;9.35;;
59147;SDS011;44930;52.878;6.168;2023-05-21T13:00:02;12.63;;;8.18;;
59147;SDS011;44930;52.878;6.168;2023-05-21T13:02:33;13.55;;;9.45;;
59147;SDS011;44930;52.878;6.168;2023-05-21T13:05:03;15.00;;;8.23;;
59147;SDS011;44930;52.878;6.168;2023-05-21T13:07:30;15.20;;;8.93;;
59147;SDS011;44930;52.878;6.168;2023-05-21T13:09:57;9.55;;;7.50;;
59147;SDS011;44930;52.878;6.168;2023-05-21T13:12:24;13.18;;;9.15;;
59147;SDS011;44930;52.878;6.168;2023-05-21T13:14:53;11.80;;;8.38;;
59147;SDS011;44930;52.878;6.168;2023-05-21T13:17:21;13.80;;;8.70;;
59147;SDS011;44930;52.878;6.168;2023-05-21T13:22:33;14.30;;;9.00;;
59147;SDS011;44930;52.878;6.168;2023-05-21T13:25:04;15.30;;;8.98;;
59147;SDS011;44930;52.878;6.168;2023-05-21T13:27:30;12.55;;;8.73;;
59147;SDS011;44930;52.878;6.168;2023-05-21T13:29:55;13.43;;;9.23;;
59147;SDS011;44930;52.878;6.168;2023-05-21T13:32:22;15.05;;;9.05;;
59147;SDS011;44930;52.878;6.168;2023-05-21T13:34:47;11.82;;;9.07;;
59147;SDS011;44930;52.878;6.168;2023-05-21T13:37:13;14.38;;;9.73;;
59147;SDS011;44930;52.878;6.168;2023-05-21T13:39:39;16.17;;;9.32;;
59147;SDS011;44930;52.878;6.168;2023-05-21T13:42:04;12.93;;;9.40;;
59147;SDS011;44930;52.878;6.168;2023-05-21T13:44:30;13.40;;;9.57;;
59147;SDS011;44930;52.878;6.168;2023-05-21T13:47:03;16.15;;;10.20;;
59147;SDS011;44930;52.878;6.168;2023-05-21T13:49:30;14.85;;;9.32;;
59147;SDS011;44930;52.878;6.168;2023-05-21T13:51:56;19.40;;;11.20;;
59147;SDS011;44930;52.878;6.168;2023-05-21T13:54:22;14.00;;;9.55;;
59147;SDS011;44930;52.878;6.168;2023-05-21T13:56:48;16.08;;;9.93;;
59147;SDS011;44930;52.878;6.168;2023-05-21T13:59:14;10.63;;;8.80;;
59147;SDS011;44930;52.878;6.168;2023-05-21T14:01:40;15.85;;;9.55;;
59147;SDS011;44930;52.878;6.168;2023-05-21T14:04:08;14.13;;;9.88;;
59147;SDS011;44930;52.878;6.168;2023-05-21T14:06:34;15.15;;;10.23;;
59147;SDS011;44930;52.878;6.168;2023-05-21T14:09:00;17.92;;;10.45;;
59147;SDS011;44930;52.878;6.168;2023-05-21T14:11:26;13.27;;;9.95;;
59147;SDS011;44930;52.878;6.168;2023-05-21T14:13:52;13.48;;;9.23;;
59147;SDS011;44930;52.878;6.168;2023-05-21T14:16:18;17.77;;;10.05;;
59147;SDS011;44930;52.878;6.168;2023-05-21T14:18:46;12.73;;;10.95;;
59147;SDS011;44930;52.878;6.168;2023-05-21T14:21:12;13.70;;;10.98;;
59147;SDS011;44930;52.878;6.168;2023-05-21T14:23:38;13.95;;;9.90;;
59147;SDS011;44930;52.878;6.168;2023-05-21T14:26:03;16.88;;;11.27;;
59147;SDS011;44930;52.878;6.168;2023-05-21T14:28:29;15.88;;;11.23;;
59147;SDS011;44930;52.878;6.168;2023-05-21T14:30:54;17.77;;;11.50;;
59147;SDS011;44930;52.878;6.168;2023-05-21T14:33:20;15.10;;;10.20;;
59147;SDS011;44930;52.878;6.168;2023-05-21T14:35:45;16.75;;;10.82;;
59147;SDS011;44930;52.878;6.168;2023-05-21T14:38:12;15.95;;;11.15;;
59147;SDS011;44930;52.878;6.168;2023-05-21T14:40:37;14.73;;;10.40;;
59147;SDS011;44930;52.878;6.168;2023-05-21T14:43:03;18.83;;;11.40;;
59147;SDS011;44930;52.878;6.168;2023-05-21T14:45:30;13.85;;;10.20;;
59147;SDS011;44930;52.878;6.168;2023-05-21T14:47:59;17.92;;;11.52;;
59147;SDS011;44930;52.878;6.168;2023-05-21T14:50:32;17.33;;;11.07;;
59147;SDS011;44930;52.878;6.168;2023-05-21T14:53:02;17.70;;;11.52;;
59147;SDS011;44930;52.878;6.168;2023-05-21T14:55:28;15.75;;;11.38;;
59147;SDS011;44930;52.878;6.168;2023-05-21T14:57:54;20.30;;;11.70;;
59147;SDS011;44930;52.878;6.168;2023-05-21T15:00:20;16.25;;;11.82;;
59147;SDS011;44930;52.878;6.168;2023-05-21T15:02:45;16.02;;;11.52;;